KNZY/NZY METAR and TAF weather

Enter ICAO airport designator
Station Type Date Time Source
KNZY METAR 2021/09/25 12:52 UTC NOAA

KNZY 251252Z AUTO 33004KT 10SM CLR 19/17 A2996 RMK AO2 SLP145 T01940167 $


Station Type Date Time Source
KNZY Decoded METAR 2021/09/25 12:52 UTC NOAA

NAS NORTH ISLAND, SAN DIEGO, CA, United States (KNZY) 32-42N 117-13W 14M
Sep 25, 2021 - 08:52 AM EDT / 2021.09.25 1252 UTC
Wind: from the NNW (330 degrees) at 5 MPH (4 KT):0
Visibility: 10 mile(s):0
Sky conditions: clear
Temperature: 66.9 F (19.4 C)
Dew Point: 62.1 F (16.7 C)
Relative Humidity: 84%
Pressure (altimeter): 29.96 in. Hg (1014 hPa)
ob: KNZY 251252Z AUTO 33004KT 10SM CLR 19/17 A2996 RMK AO2 SLP145 T01940167
cycle: 13

Station Type Date Time Source
KNZY TAF 2021/09/25 07:06 UTC NOAA

TAF TAF KNZY 2507/2607 VRB06KT 9999 SCT015 QNH2991INS
TEMPO 2507/2512 BKN012 BKN180
FM251900 28008KT 9999 VCSH FEW015 SCT040 BKN100 QNH2988INS
FM260200 VRB06KT 9999 SCT015 BKN080 QNH2995INS
TEMPO 2602/2607 BKN012 OVC060 AUTOMATED SENSOR METWATCH 2507 TIL 2513 T19/2512Z T24/2521Z FS30170

Example: see airport list